sensor_id;sensor_type;location;lat;lon;timestamp;temperature;humidity
5605;DHT22;9297;47.258;11.362;2023-09-12T00:00:26;22.50;93.90
5605;DHT22;9297;47.258;11.362;2023-09-12T00:02:54;22.50;93.10
5605;DHT22;9297;47.258;11.362;2023-09-12T00:05:21;22.40;93.50
5605;DHT22;9297;47.258;11.362;2023-09-12T00:07:48;22.40;93.80
5605;DHT22;9297;47.258;11.362;2023-09-12T00:10:18;22.40;93.30
5605;DHT22;9297;47.258;11.362;2023-09-12T00:12:45;22.40;92.60
5605;DHT22;9297;47.258;11.362;2023-09-12T00:15:14;22.30;93.50
5605;DHT22;9297;47.258;11.362;2023-09-12T00:17:42;22.30;93.80
5605;DHT22;9297;47.258;11.362;2023-09-12T00:20:09;22.20;93.70
5605;DHT22;9297;47.258;11.362;2023-09-12T00:22:37;22.10;94.40
5605;DHT22;9297;47.258;11.362;2023-09-12T00:25:05;22.10;95.20
5605;DHT22;9297;47.258;11.362;2023-09-12T00:27:32;22.10;94.90
5605;DHT22;9297;47.258;11.362;2023-09-12T00:29:59;22.10;94.30
5605;DHT22;9297;47.258;11.362;2023-09-12T00:32:28;22.10;93.70
5605;DHT22;9297;47.258;11.362;2023-09-12T00:34:55;22.00;93.80
5605;DHT22;9297;47.258;11.362;2023-09-12T00:37:22;22.00;94.90
5605;DHT22;9297;47.258;11.362;2023-09-12T00:39:49;22.00;94.20
5605;DHT22;9297;47.258;11.362;2023-09-12T00:42:16;22.00;94.40
5605;DHT22;9297;47.258;11.362;2023-09-12T00:44:43;21.90;94.80
5605;DHT22;9297;47.258;11.362;2023-09-12T00:47:11;21.80;94.60
5605;DHT22;9297;47.258;11.362;2023-09-12T00:49:40;21.70;95.00
5605;DHT22;9297;47.258;11.362;2023-09-12T00:52:08;21.70;95.80
5605;DHT22;9297;47.258;11.362;2023-09-12T00:54:35;21.70;95.40
5605;DHT22;9297;47.258;11.362;2023-09-12T00:57:03;21.60;95.70
5605;DHT22;9297;47.258;11.362;2023-09-12T00:59:30;21.70;95.10
5605;DHT22;9297;47.258;11.362;2023-09-12T01:01:58;21.60;95.50
5605;DHT22;9297;47.258;11.362;2023-09-12T01:04:25;21.60;95.40
5605;DHT22;9297;47.258;11.362;2023-09-12T01:07:04;21.60;95.90
5605;DHT22;9297;47.258;11.362;2023-09-12T01:09:32;21.50;96.70
5605;DHT22;9297;47.258;11.362;2023-09-12T01:11:59;21.50;96.20
5605;DHT22;9297;47.258;11.362;2023-09-12T01:14:26;21.50;96.60
5605;DHT22;9297;47.258;11.362;2023-09-12T01:16:53;21.40;97.70
5605;DHT22;9297;47.258;11.362;2023-09-12T01:19:20;21.50;97.00
5605;DHT22;9297;47.258;11.362;2023-09-12T01:28:17;21.30;99.20
5605;DHT22;9297;47.258;11.362;2023-09-12T01:30:45;21.30;98.50
5605;DHT22;9297;47.258;11.362;2023-09-12T01:33:14;21.30;98.50
5605;DHT22;9297;47.258;11.362;2023-09-12T01:35:41;21.20;98.10
5605;DHT22;9297;47.258;11.362;2023-09-12T01:38:08;21.20;98.30
5605;DHT22;9297;47.258;11.362;2023-09-12T01:40:42;21.20;97.20
5605;DHT22;9297;47.258;11.362;2023-09-12T01:43:10;21.20;97.20
5605;DHT22;9297;47.258;11.362;2023-09-12T01:45:40;21.10;97.30
5605;DHT22;9297;47.258;11.362;2023-09-12T01:48:08;21.10;97.50
5605;DHT22;9297;47.258;11.362;2023-09-12T01:50:36;21.10;97.80
5605;DHT22;9297;47.258;11.362;2023-09-12T01:53:03;21.10;98.40
5605;DHT22;9297;47.258;11.362;2023-09-12T01:55:31;21.00;98.70
5605;DHT22;9297;47.258;11.362;2023-09-12T01:57:58;21.00;98.60
5605;DHT22;9297;47.258;11.362;2023-09-12T02:00:25;20.90;99.20
5605;DHT22;9297;47.258;11.362;2023-09-12T02:02:53;20.90;99.50
5605;DHT22;9297;47.258;11.362;2023-09-12T02:05:22;20.90;99.90
5605;DHT22;9297;47.258;11.362;2023-09-12T02:07:49;20.80;99.90
5605;DHT22;9297;47.258;11.362;2023-09-12T02:10:16;20.70;99.90
5605;DHT22;9297;47.258;11.362;2023-09-12T02:12:43;20.70;99.90
5605;DHT22;9297;47.258;11.362;2023-09-12T02:15:10;20.80;99.90
5605;DHT22;9297;47.258;11.362;2023-09-12T02:17:38;20.80;99.90
5605;DHT22;9297;47.258;11.362;2023-09-12T02:20:07;20.80;99.90
5605;DHT22;9297;47.258;11.362;2023-09-12T02:22:35;20.80;99.20
5605;DHT22;9297;47.258;11.362;2023-09-12T02:25:04;20.90;99.40
5605;DHT22;9297;47.258;11.362;2023-09-12T02:27:31;20.90;99.70
5605;DHT22;9297;47.258;11.362;2023-09-12T02:29:58;20.80;99.90
5605;DHT22;9297;47.258;11.362;2023-09-12T02:32:25;20.80;99.90
5605;DHT22;9297;47.258;11.362;2023-09-12T02:34:52;20.90;99.90
5605;DHT22;9297;47.258;11.362;2023-09-12T02:37:21;20.90;99.90
5605;DHT22;9297;47.258;11.362;2023-09-12T02:39:48;20.90;99.90
5605;DHT22;9297;47.258;11.362;2023-09-12T02:42:15;20.80;99.80
5605;DHT22;9297;47.258;11.362;2023-09-12T02:44:42;20.80;99.80
5605;DHT22;9297;47.258;11.362;2023-09-12T02:47:09;20.80;99.50
5605;DHT22;9297;47.258;11.362;2023-09-12T02:49:37;20.80;99.90
5605;DHT22;9297;47.258;11.362;2023-09-12T02:52:04;20.60;99.90
5605;DHT22;9297;47.258;11.362;2023-09-12T02:54:35;20.60;99.90
5605;DHT22;9297;47.258;11.362;2023-09-12T02:57:03;20.60;99.90
5605;DHT22;9297;47.258;11.362;2023-09-12T02:59:30;20.60;99.60
5605;DHT22;9297;47.258;11.362;2023-09-12T03:01:57;20.60;99.90
5605;DHT22;9297;47.258;11.362;2023-09-12T03:04:25;20.50;99.90
5605;DHT22;9297;47.258;11.362;2023-09-12T03:06:52;20.50;99.90
5605;DHT22;9297;47.258;11.362;2023-09-12T03:09:19;20.50;99.90
5605;DHT22;9297;47.258;11.362;2023-09-12T03:11:48;20.40;99.90
5605;DHT22;9297;47.258;11.362;2023-09-12T03:14:15;20.40;99.90
5605;DHT22;9297;47.258;11.362;2023-09-12T03:16:42;20.40;99.90
5605;DHT22;9297;47.258;11.362;2023-09-12T03:19:09;20.30;99.90
5605;DHT22;9297;47.258;11.362;2023-09-12T03:21:36;20.20;99.90
5605;DHT22;9297;47.258;11.362;2023-09-12T03:24:04;20.20;99.90
5605;DHT22;9297;47.258;11.362;2023-09-12T03:26:34;20.30;99.90
5605;DHT22;9297;47.258;11.362;2023-09-12T03:29:03;20.20;99.90
5605;DHT22;9297;47.258;11.362;2023-09-12T03:31:31;20.20;99.90
5605;DHT22;9297;47.258;11.362;2023-09-12T03:33:58;20.20;99.90
5605;DHT22;9297;47.258;11.362;2023-09-12T03:36:25;20.20;99.90
5605;DHT22;9297;47.258;11.362;2023-09-12T03:38:52;20.10;99.90
5605;DHT22;9297;47.258;11.362;2023-09-12T03:41:19;20.10;99.90
5605;DHT22;9297;47.258;11.362;2023-09-12T03:43:46;20.10;99.90
5605;DHT22;9297;47.258;11.362;2023-09-12T03:46:15;20.10;99.90
5605;DHT22;9297;47.258;11.362;2023-09-12T03:48:42;20.00;99.90
5605;DHT22;9297;47.258;11.362;2023-09-12T03:51:09;19.90;99.90
5605;DHT22;9297;47.258;11.362;2023-09-12T03:53:37;20.00;99.90
5605;DHT22;9297;47.258;11.362;2023-09-12T03:56:04;20.00;99.90
5605;DHT22;9297;47.258;11.362;2023-09-12T03:58:31;20.00;99.90
5605;DHT22;9297;47.258;11.362;2023-09-12T04:00:59;20.00;99.90
5605;DHT22;9297;47.258;11.362;2023-09-12T04:03:27;20.00;99.90
5605;DHT22;9297;47.258;11.362;2023-09-12T04:05:54;20.00;99.90
5605;DHT22;9297;47.258;11.362;2023-09-12T04:08:22;20.00;99.90
5605;DHT22;9297;47.258;11.362;2023-09-12T04:10:49;19.90;99.90
5605;DHT22;9297;47.258;11.362;2023-09-12T04:13:16;19.90;99.90
5605;DHT22;9297;47.258;11.362;2023-09-12T04:15:43;19.80;99.90
5605;DHT22;9297;47.258;11.362;2023-09-12T04:18:10;19.70;99.90
5605;DHT22;9297;47.258;11.362;2023-09-12T04:20:39;19.70;99.90
5605;DHT22;9297;47.258;11.362;2023-09-12T04:23:07;19.70;99.90
5605;DHT22;9297;47.258;11.362;2023-09-12T04:25:34;19.70;99.90
5605;DHT22;9297;47.258;11.362;2023-09-12T04:28:01;19.60;99.90
5605;DHT22;9297;47.258;11.362;2023-09-12T04:30:29;19.60;99.90
5605;DHT22;9297;47.258;11.362;2023-09-12T04:32:56;19.60;99.90
5605;DHT22;9297;47.258;11.362;2023-09-12T04:35:23;19.50;99.90
5605;DHT22;9297;47.258;11.362;2023-09-12T04:37:51;19.50;99.90
5605;DHT22;9297;47.258;11.362;2023-09-12T04:40:18;19.60;99.90
5605;DHT22;9297;47.258;11.362;2023-09-12T04:42:45;19.70;99.90
5605;DHT22;9297;47.258;11.362;2023-09-12T04:45:13;20.00;99.90
5605;DHT22;9297;47.258;11.362;2023-09-12T04:47:40;20.20;99.90
5605;DHT22;9297;47.258;11.362;2023-09-12T04:50:07;20.30;99.90
5605;DHT22;9297;47.258;11.362;2023-09-12T04:52:35;20.20;99.90
5605;DHT22;9297;47.258;11.362;2023-09-12T04:55:04;20.00;99.90
5605;DHT22;9297;47.258;11.362;2023-09-12T04:57:31;20.00;99.90
5605;DHT22;9297;47.258;11.362;2023-09-12T04:59:58;20.00;99.90
5605;DHT22;9297;47.258;11.362;2023-09-12T05:02:25;20.10;99.90
5605;DHT22;9297;47.258;11.362;2023-09-12T05:04:53;19.90;99.90
5605;DHT22;9297;47.258;11.362;2023-09-12T05:07:20;20.00;99.90
5605;DHT22;9297;47.258;11.362;2023-09-12T05:09:47;20.20;99.90
5605;DHT22;9297;47.258;11.362;2023-09-12T05:12:16;20.20;99.40
5605;DHT22;9297;47.258;11.362;2023-09-12T05:14:43;20.00;99.90
5605;DHT22;9297;47.258;11.362;2023-09-12T05:17:10;19.80;99.90
5605;DHT22;9297;47.258;11.362;2023-09-12T05:19:37;19.80;99.90
5605;DHT22;9297;47.258;11.362;2023-09-12T05:22:04;19.90;99.90
5605;DHT22;9297;47.258;11.362;2023-09-12T05:24:31;19.70;99.90
5605;DHT22;9297;47.258;11.362;2023-09-12T05:26:58;19.70;99.90
5605;DHT22;9297;47.258;11.362;2023-09-12T05:29:27;19.60;99.90
5605;DHT22;9297;47.258;11.362;2023-09-12T05:31:54;19.70;99.90
5605;DHT22;9297;47.258;11.362;2023-09-12T05:34:21;19.70;99.90
5605;DHT22;9297;47.258;11.362;2023-09-12T05:36:49;19.80;99.90
5605;DHT22;9297;47.258;11.362;2023-09-12T05:39:16;19.80;99.90
5605;DHT22;9297;47.258;11.362;2023-09-12T05:41:43;19.80;99.90
5605;DHT22;9297;47.258;11.362;2023-09-12T05:44:10;19.80;99.90
5605;DHT22;9297;47.258;11.362;2023-09-12T05:46:39;19.80;99.90
5605;DHT22;9297;47.258;11.362;2023-09-12T05:49:06;19.80;99.90
5605;DHT22;9297;47.258;11.362;2023-09-12T05:51:33;19.80;99.90
5605;DHT22;9297;47.258;11.362;2023-09-12T05:54:00;19.90;99.90
5605;DHT22;9297;47.258;11.362;2023-09-12T05:56:27;19.90;99.90
5605;DHT22;9297;47.258;11.362;2023-09-12T05:58:54;19.90;99.90
5605;DHT22;9297;47.258;11.362;2023-09-12T06:01:22;19.90;99.90
5605;DHT22;9297;47.258;11.362;2023-09-12T06:03:50;20.00;99.90
5605;DHT22;9297;47.258;11.362;2023-09-12T06:06:18;20.00;99.90
5605;DHT22;9297;47.258;11.362;2023-09-12T06:08:45;20.10;99.90
5605;DHT22;9297;47.258;11.362;2023-09-12T06:11:12;20.10;99.70
5605;DHT22;9297;47.258;11.362;2023-09-12T06:13:39;20.20;98.40
5605;DHT22;9297;47.258;11.362;2023-09-12T06:16:07;20.20;99.40
5605;DHT22;9297;47.258;11.362;2023-09-12T06:18:34;20.10;99.90
5605;DHT22;9297;47.258;11.362;2023-09-12T06:21:02;20.10;99.90
5605;DHT22;9297;47.258;11.362;2023-09-12T06:23:29;20.10;99.90
5605;DHT22;9297;47.258;11.362;2023-09-12T06:25:56;20.10;99.90
5605;DHT22;9297;47.258;11.362;2023-09-12T06:28:28;20.10;99.90
5605;DHT22;9297;47.258;11.362;2023-09-12T06:30:55;20.20;99.90
5605;DHT22;9297;47.258;11.362;2023-09-12T06:33:23;20.30;99.90
5605;DHT22;9297;47.258;11.362;2023-09-12T06:35:50;20.30;99.90
5605;DHT22;9297;47.258;11.362;2023-09-12T06:38:19;20.40;99.20
5605;DHT22;9297;47.258;11.362;2023-09-12T06:40:47;20.40;98.60
5605;DHT22;9297;47.258;11.362;2023-09-12T06:43:15;20.40;98.50
5605;DHT22;9297;47.258;11.362;2023-09-12T06:45:42;20.50;99.10
5605;DHT22;9297;47.258;11.362;2023-09-12T06:48:09;20.60;98.30
5605;DHT22;9297;47.258;11.362;2023-09-12T06:50:36;20.60;98.70
5605;DHT22;9297;47.258;11.362;2023-09-12T06:53:03;20.70;97.40
5605;DHT22;9297;47.258;11.362;2023-09-12T06:55:32;20.80;96.30
5605;DHT22;9297;47.258;11.362;2023-09-12T06:57:59;20.80;97.20
5605;DHT22;9297;47.258;11.362;2023-09-12T07:00:26;20.80;97.00
5605;DHT22;9297;47.258;11.362;2023-09-12T07:02:53;20.90;95.70
5605;DHT22;9297;47.258;11.362;2023-09-12T07:05:20;20.90;95.50
5605;DHT22;9297;47.258;11.362;2023-09-12T07:07:48;21.00;95.70
5605;DHT22;9297;47.258;11.362;2023-09-12T07:10:16;21.00;95.60
5605;DHT22;9297;47.258;11.362;2023-09-12T07:12:52;21.10;94.60
5605;DHT22;9297;47.258;11.362;2023-09-12T07:15:20;21.20;92.90
5605;DHT22;9297;47.258;11.362;2023-09-12T07:17:47;21.20;91.10
5605;DHT22;9297;47.258;11.362;2023-09-12T07:20:14;21.20;92.50
5605;DHT22;9297;47.258;11.362;2023-09-12T07:22:41;21.30;91.60
5605;DHT22;9297;47.258;11.362;2023-09-12T07:25:09;21.30;91.80
5605;DHT22;9297;47.258;11.362;2023-09-12T07:27:36;21.40;93.20
5605;DHT22;9297;47.258;11.362;2023-09-12T07:30:06;21.40;93.00
5605;DHT22;9297;47.258;11.362;2023-09-12T07:32:34;21.50;92.80
5605;DHT22;9297;47.258;11.362;2023-09-12T07:35:01;21.60;91.90
5605;DHT22;9297;47.258;11.362;2023-09-12T07:37:28;21.60;91.20
5605;DHT22;9297;47.258;11.362;2023-09-12T07:39:55;21.60;91.50
5605;DHT22;9297;47.258;11.362;2023-09-12T07:42:23;21.70;91.30
5605;DHT22;9297;47.258;11.362;2023-09-12T07:44:51;21.70;91.20
5605;DHT22;9297;47.258;11.362;2023-09-12T07:47:19;21.80;92.60
5605;DHT22;9297;47.258;11.362;2023-09-12T07:49:52;21.90;91.60
5605;DHT22;9297;47.258;11.362;2023-09-12T07:52:20;21.90;89.40
5605;DHT22;9297;47.258;11.362;2023-09-12T07:54:48;22.10;89.90
5605;DHT22;9297;47.258;11.362;2023-09-12T07:57:15;22.10;88.90
5605;DHT22;9297;47.258;11.362;2023-09-12T07:59:43;22.10;89.30
5605;DHT22;9297;47.258;11.362;2023-09-12T08:02:10;22.00;84.80
5605;DHT22;9297;47.258;11.362;2023-09-12T08:04:38;22.20;83.40
5605;DHT22;9297;47.258;11.362;2023-09-12T08:07:05;22.30;84.50
5605;DHT22;9297;47.258;11.362;2023-09-12T08:09:48;22.30;83.60
5605;DHT22;9297;47.258;11.362;2023-09-12T08:12:16;22.40;81.90
5605;DHT22;9297;47.258;11.362;2023-09-12T08:14:43;22.40;81.20
5605;DHT22;9297;47.258;11.362;2023-09-12T08:17:11;22.50;80.50
5605;DHT22;9297;47.258;11.362;2023-09-12T08:19:39;22.50;78.60
5605;DHT22;9297;47.258;11.362;2023-09-12T08:22:08;22.60;79.80
5605;DHT22;9297;47.258;11.362;2023-09-12T08:24:36;22.70;78.00
5605;DHT22;9297;47.258;11.362;2023-09-12T08:27:03;22.80;77.90
5605;DHT22;9297;47.258;11.362;2023-09-12T08:29:32;22.90;76.50
5605;DHT22;9297;47.258;11.362;2023-09-12T08:32:00;23.00;76.40
5605;DHT22;9297;47.258;11.362;2023-09-12T08:34:27;23.10;75.10
5605;DHT22;9297;47.258;11.362;2023-09-12T08:36:56;23.10;75.30
5605;DHT22;9297;47.258;11.362;2023-09-12T08:39:24;23.20;75.30
5605;DHT22;9297;47.258;11.362;2023-09-12T08:41:52;23.30;74.80
5605;DHT22;9297;47.258;11.362;2023-09-12T08:44:20;23.30;74.60
5605;DHT22;9297;47.258;11.362;2023-09-12T08:46:47;23.40;76.00
5605;DHT22;9297;47.258;11.362;2023-09-12T08:49:16;23.50;73.20
5605;DHT22;9297;47.258;11.362;2023-09-12T08:51:43;23.60;74.60
5605;DHT22;9297;47.258;11.362;2023-09-12T08:54:11;23.70;73.90
5605;DHT22;9297;47.258;11.362;2023-09-12T08:56:40;23.60;72.90
5605;DHT22;9297;47.258;11.362;2023-09-12T08:59:10;23.60;72.60
5605;DHT22;9297;47.258;11.362;2023-09-12T09:01:37;23.70;72.40
5605;DHT22;9297;47.258;11.362;2023-09-12T09:04:05;23.80;73.40
5605;DHT22;9297;47.258;11.362;2023-09-12T09:06:32;23.80;71.20
5605;DHT22;9297;47.258;11.362;2023-09-12T09:09:02;23.70;72.10
5605;DHT22;9297;47.258;11.362;2023-09-12T09:11:32;23.70;73.70
5605;DHT22;9297;47.258;11.362;2023-09-12T09:13:59;23.80;73.10
5605;DHT22;9297;47.258;11.362;2023-09-12T09:16:27;23.90;72.90
5605;DHT22;9297;47.258;11.362;2023-09-12T09:18:55;23.90;72.90
5605;DHT22;9297;47.258;11.362;2023-09-12T09:21:25;24.00;72.80
5605;DHT22;9297;47.258;11.362;2023-09-12T09:23:53;24.10;72.20
5605;DHT22;9297;47.258;11.362;2023-09-12T09:26:21;24.30;72.00
5605;DHT22;9297;47.258;11.362;2023-09-12T09:29:05;24.30;71.40
5605;DHT22;9297;47.258;11.362;2023-09-12T09:31:32;24.40;69.90
5605;DHT22;9297;47.258;11.362;2023-09-12T09:34:00;24.50;69.90
5605;DHT22;9297;47.258;11.362;2023-09-12T09:36:28;24.60;70.30
5605;DHT22;9297;47.258;11.362;2023-09-12T09:38:57;24.70;68.40
5605;DHT22;9297;47.258;11.362;2023-09-12T09:41:24;24.80;67.50
5605;DHT22;9297;47.258;11.362;2023-09-12T09:43:51;24.70;66.60
5605;DHT22;9297;47.258;11.362;2023-09-12T09:46:20;24.80;67.60
5605;DHT22;9297;47.258;11.362;2023-09-12T09:48:51;24.90;69.10
5605;DHT22;9297;47.258;11.362;2023-09-12T09:51:19;24.90;66.70
5605;DHT22;9297;47.258;11.362;2023-09-12T09:53:46;24.90;67.00
5605;DHT22;9297;47.258;11.362;2023-09-12T09:56:18;24.80;65.10
5605;DHT22;9297;47.258;11.362;2023-09-12T09:58:49;24.90;65.70
5605;DHT22;9297;47.258;11.362;2023-09-12T10:01:19;24.90;67.40
5605;DHT22;9297;47.258;11.362;2023-09-12T10:03:48;25.00;65.00
5605;DHT22;9297;47.258;11.362;2023-09-12T10:06:16;25.10;65.90
5605;DHT22;9297;47.258;11.362;2023-09-12T10:08:44;25.20;65.00
5605;DHT22;9297;47.258;11.362;2023-09-12T10:11:13;25.00;66.10
5605;DHT22;9297;47.258;11.362;2023-09-12T10:13:45;25.20;66.40
5605;DHT22;9297;47.258;11.362;2023-09-12T10:16:13;25.30;65.60
5605;DHT22;9297;47.258;11.362;2023-09-12T10:18:55;25.30;66.60
5605;DHT22;9297;47.258;11.362;2023-09-12T10:21:29;25.30;66.00
5605;DHT22;9297;47.258;11.362;2023-09-12T10:23:58;25.30;66.70
5605;DHT22;9297;47.258;11.362;2023-09-12T10:26:26;25.30;65.90
5605;DHT22;9297;47.258;11.362;2023-09-12T10:28:54;25.30;64.50
5605;DHT22;9297;47.258;11.362;2023-09-12T10:31:22;25.60;64.60
5605;DHT22;9297;47.258;11.362;2023-09-12T10:33:52;25.80;64.20
5605;DHT22;9297;47.258;11.362;2023-09-12T10:36:20;26.10;64.50
5605;DHT22;9297;47.258;11.362;2023-09-12T10:38:48;26.20;62.20
5605;DHT22;9297;47.258;11.362;2023-09-12T10:41:16;26.20;60.00
5605;DHT22;9297;47.258;11.362;2023-09-12T10:43:44;26.70;59.80
5605;DHT22;9297;47.258;11.362;2023-09-12T10:46:12;26.70;58.00
5605;DHT22;9297;47.258;11.362;2023-09-12T10:48:39;26.70;59.60
5605;DHT22;9297;47.258;11.362;2023-09-12T10:51:08;26.70;58.00
5605;DHT22;9297;47.258;11.362;2023-09-12T10:53:37;26.70;59.80
5605;DHT22;9297;47.258;11.362;2023-09-12T10:56:16;26.80;58.20
5605;DHT22;9297;47.258;11.362;2023-09-12T10:59:09;26.60;58.70
5605;DHT22;9297;47.258;11.362;2023-09-12T11:01:38;26.70;59.10
5605;DHT22;9297;47.258;11.362;2023-09-12T11:04:29;26.60;60.10
5605;DHT22;9297;47.258;11.362;2023-09-12T11:06:58;26.60;59.50
5605;DHT22;9297;47.258;11.362;2023-09-12T11:09:28;26.60;60.40
5605;DHT22;9297;47.258;11.362;2023-09-12T11:11:57;26.60;60.20
5605;DHT22;9297;47.258;11.362;2023-09-12T11:14:25;26.40;61.20
5605;DHT22;9297;47.258;11.362;2023-09-12T11:17:21;26.40;60.50
5605;DHT22;9297;47.258;11.362;2023-09-12T11:19:50;26.40;60.60
5605;DHT22;9297;47.258;11.362;2023-09-12T11:22:28;26.80;59.80
5605;DHT22;9297;47.258;11.362;2023-09-12T11:25:01;27.30;59.50
5605;DHT22;9297;47.258;11.362;2023-09-12T11:27:31;27.70;59.20
5605;DHT22;9297;47.258;11.362;2023-09-12T11:30:06;28.00;60.40
5605;DHT22;9297;47.258;11.362;2023-09-12T11:32:35;28.50;58.00
5605;DHT22;9297;47.258;11.362;2023-09-12T11:35:06;28.50;59.40
5605;DHT22;9297;47.258;11.362;2023-09-12T11:37:35;28.60;56.30
5605;DHT22;9297;47.258;11.362;2023-09-12T11:40:03;28.80;55.40
5605;DHT22;9297;47.258;11.362;2023-09-12T11:42:42;29.00;55.50
5605;DHT22;9297;47.258;11.362;2023-09-12T11:45:10;29.00;53.90
5605;DHT22;9297;47.258;11.362;2023-09-12T11:47:40;29.00;55.30
5605;DHT22;9297;47.258;11.362;2023-09-12T11:50:08;29.20;56.00
5605;DHT22;9297;47.258;11.362;2023-09-12T11:52:37;29.30;53.30
5605;DHT22;9297;47.258;11.362;2023-09-12T11:55:06;29.60;51.20
5605;DHT22;9297;47.258;11.362;2023-09-12T11:57:33;29.50;51.40
5605;DHT22;9297;47.258;11.362;2023-09-12T12:00:03;29.70;53.60
5605;DHT22;9297;47.258;11.362;2023-09-12T12:02:33;29.80;51.90
5605;DHT22;9297;47.258;11.362;2023-09-12T12:05:00;29.90;52.40
5605;DHT22;9297;47.258;11.362;2023-09-12T12:07:28;30.00;54.90
5605;DHT22;9297;47.258;11.362;2023-09-12T12:09:57;30.20;51.10
5605;DHT22;9297;47.258;11.362;2023-09-12T12:12:24;30.20;52.30
5605;DHT22;9297;47.258;11.362;2023-09-12T12:14:51;30.40;51.70
5605;DHT22;9297;47.258;11.362;2023-09-12T12:17:18;30.60;51.90
5605;DHT22;9297;47.258;11.362;2023-09-12T12:19:46;30.80;50.10
5605;DHT22;9297;47.258;11.362;2023-09-12T12:22:13;30.90;50.70
5605;DHT22;9297;47.258;11.362;2023-09-12T12:24:44;31.10;51.60
5605;DHT22;9297;47.258;11.362;2023-09-12T12:27:14;30.60;50.00
5605;DHT22;9297;47.258;11.362;2023-09-12T12:29:42;30.70;46.70
5605;DHT22;9297;47.258;11.362;2023-09-12T12:32:10;30.40;47.10
5605;DHT22;9297;47.258;11.362;2023-09-12T12:34:37;30.30;47.70
5605;DHT22;9297;47.258;11.362;2023-09-12T12:37:28;30.80;46.40
5605;DHT22;9297;47.258;11.362;2023-09-12T12:39:56;31.40;49.20
5605;DHT22;9297;47.258;11.362;2023-09-12T12:42:25;31.00;46.10
5605;DHT22;9297;47.258;11.362;2023-09-12T12:44:54;31.30;47.50
5605;DHT22;9297;47.258;11.362;2023-09-12T12:47:21;31.90;48.00
5605;DHT22;9297;47.258;11.362;2023-09-12T12:49:50;32.10;47.10
5605;DHT22;9297;47.258;11.362;2023-09-12T12:52:22;31.90;45.50
5605;DHT22;9297;47.258;11.362;2023-09-12T12:54:50;32.20;45.20
5605;DHT22;9297;47.258;11.362;2023-09-12T12:57:19;32.10;45.00
5605;DHT22;9297;47.258;11.362;2023-09-12T12:59:48;32.10;44.60
5605;DHT22;9297;47.258;11.362;2023-09-12T13:02:15;32.30;45.50
5605;DHT22;9297;47.258;11.362;2023-09-12T13:04:43;32.40;44.20
5605;DHT22;9297;47.258;11.362;2023-09-12T13:07:10;32.50;44.20
5605;DHT22;9297;47.258;11.362;2023-09-12T13:09:37;32.10;41.60
5605;DHT22;9297;47.258;11.362;2023-09-12T13:12:06;32.50;43.60
5605;DHT22;9297;47.258;11.362;2023-09-12T13:14:33;32.90;43.20
5605;DHT22;9297;47.258;11.362;2023-09-12T13:17:01;33.00;44.80
5605;DHT22;9297;47.258;11.362;2023-09-12T13:19:29;32.90;45.30
5605;DHT22;9297;47.258;11.362;2023-09-12T13:21:56;32.60;42.10
5605;DHT22;9297;47.258;11.362;2023-09-12T13:24:23;33.10;44.80
5605;DHT22;9297;47.258;11.362;2023-09-12T13:26:51;33.20;42.10
5605;DHT22;9297;47.258;11.362;2023-09-12T13:29:19;32.70;41.70
5605;DHT22;9297;47.258;11.362;2023-09-12T13:31:46;32.90;43.80
5605;DHT22;9297;47.258;11.362;2023-09-12T13:34:14;32.90;43.80
5605;DHT22;9297;47.258;11.362;2023-09-12T13:36:41;32.80;42.20
5605;DHT22;9297;47.258;11.362;2023-09-12T13:39:10;33.10;42.60
5605;DHT22;9297;47.258;11.362;2023-09-12T13:41:37;33.50;41.90
5605;DHT22;9297;47.258;11.362;2023-09-12T13:44:05;33.20;41.50
5605;DHT22;9297;47.258;11.362;2023-09-12T13:46:32;33.60;42.20
5605;DHT22;9297;47.258;11.362;2023-09-12T13:48:59;33.80;41.00
5605;DHT22;9297;47.258;11.362;2023-09-12T13:51:28;34.00;39.90
5605;DHT22;9297;47.258;11.362;2023-09-12T13:53:55;33.70;39.10
5605;DHT22;9297;47.258;11.362;2023-09-12T13:56:23;33.90;39.10
5605;DHT22;9297;47.258;11.362;2023-09-12T13:58:50;33.80;40.10
5605;DHT22;9297;47.258;11.362;2023-09-12T14:01:18;33.80;39.00
5605;DHT22;9297;47.258;11.362;2023-09-12T14:03:57;33.80;39.20
5605;DHT22;9297;47.258;11.362;2023-09-12T14:06:24;33.80;39.40
5605;DHT22;9297;47.258;11.362;2023-09-12T14:08:54;33.50;39.50
5605;DHT22;9297;47.258;11.362;2023-09-12T14:11:21;33.20;40.30
5605;DHT22;9297;47.258;11.362;2023-09-12T14:14:02;33.30;40.90
5605;DHT22;9297;47.258;11.362;2023-09-12T14:16:42;32.70;40.90
5605;DHT22;9297;47.258;11.362;2023-09-12T14:19:14;32.00;42.10
5605;DHT22;9297;47.258;11.362;2023-09-12T14:21:42;31.60;42.50
5605;DHT22;9297;47.258;11.362;2023-09-12T14:24:11;31.50;43.70
5605;DHT22;9297;47.258;11.362;2023-09-12T14:26:39;31.40;45.20
5605;DHT22;9297;47.258;11.362;2023-09-12T14:29:08;31.50;45.60
5605;DHT22;9297;47.258;11.362;2023-09-12T14:31:35;31.30;46.30
5605;DHT22;9297;47.258;11.362;2023-09-12T14:34:02;31.00;46.70
5605;DHT22;9297;47.258;11.362;2023-09-12T14:36:30;31.10;47.20
5605;DHT22;9297;47.258;11.362;2023-09-12T14:38:57;31.00;46.90
5605;DHT22;9297;47.258;11.362;2023-09-12T14:41:25;31.00;46.70
5605;DHT22;9297;47.258;11.362;2023-09-12T14:43:52;30.90;46.90
5605;DHT22;9297;47.258;11.362;2023-09-12T14:46:20;30.80;45.60
5605;DHT22;9297;47.258;11.362;2023-09-12T14:48:47;30.80;45.30
5605;DHT22;9297;47.258;11.362;2023-09-12T14:51:26;30.90;44.70
5605;DHT22;9297;47.258;11.362;2023-09-12T14:53:59;30.90;44.20
5605;DHT22;9297;47.258;11.362;2023-09-12T14:56:27;30.90;43.90
5605;DHT22;9297;47.258;11.362;2023-09-12T14:58:55;30.90;42.50
5605;DHT22;9297;47.258;11.362;2023-09-12T15:01:22;30.80;44.00
5605;DHT22;9297;47.258;11.362;2023-09-12T15:03:49;30.70;43.30
5605;DHT22;9297;47.258;11.362;2023-09-12T15:06:16;30.60;41.90
5605;DHT22;9297;47.258;11.362;2023-09-12T15:08:45;30.50;44.10
5605;DHT22;9297;47.258;11.362;2023-09-12T15:11:12;30.40;43.50
5605;DHT22;9297;47.258;11.362;2023-09-12T15:13:41;30.50;43.00
5605;DHT22;9297;47.258;11.362;2023-09-12T15:16:09;30.50;43.00
5605;DHT22;9297;47.258;11.362;2023-09-12T15:18:38;30.70;43.20
5605;DHT22;9297;47.258;11.362;2023-09-12T15:21:05;30.70;43.20
5605;DHT22;9297;47.258;11.362;2023-09-12T15:23:33;30.60;42.70
5605;DHT22;9297;47.258;11.362;2023-09-12T15:26:00;30.30;43.20
5605;DHT22;9297;47.258;11.362;2023-09-12T15:28:27;30.10;43.70
5605;DHT22;9297;47.258;11.362;2023-09-12T15:30:56;30.00;44.50
5605;DHT22;9297;47.258;11.362;2023-09-12T15:33:23;29.90;44.90
5605;DHT22;9297;47.258;11.362;2023-09-12T15:35:50;29.80;45.90
5605;DHT22;9297;47.258;11.362;2023-09-12T15:38:17;29.70;46.60
5605;DHT22;9297;47.258;11.362;2023-09-12T15:40:44;29.50;48.80
5605;DHT22;9297;47.258;11.362;2023-09-12T15:43:11;29.50;49.10
5605;DHT22;9297;47.258;11.362;2023-09-12T15:45:51;29.20;49.30
5605;DHT22;9297;47.258;11.362;2023-09-12T15:48:19;29.20;50.20
5605;DHT22;9297;47.258;11.362;2023-09-12T15:50:47;29.20;49.90
5605;DHT22;9297;47.258;11.362;2023-09-12T15:53:15;29.00;50.70
5605;DHT22;9297;47.258;11.362;2023-09-12T15:55:42;29.00;52.20
5605;DHT22;9297;47.258;11.362;2023-09-12T15:58:09;28.90;51.20